»·PEaware :: N505TB KFMN-KLAS

N505TB :: KFMN-KLAS

FLIGHT INFORMATION

Flight Status: Arrived
Operator: Privately registered:
United States
More flights under this callsign
Pilot: Jeremy D. (22782)
Aircraft: SOCATA TBM-900
(TBM9)
More flights by this aircraft type
Origin: KFMN Four Corners Regl
United States
Destination: KLAS McCarran Intl
United States
More flights between these airports :: More routes between these airports
Route: +CHACO1 CHACO TBC J64 PGS TYSSN5
File this flight plan on PilotEdge
Remarks: RMK / SIMBRIEF
Altitude:
(Current/Filed)
28,000ft
Speed:
(Current/Filed)
320kts
Departed: 08-Nov-19 09:00 PM
Arrived: 08-Nov-19 10:21 PM
Distance/Time
Traveled:
336nm/1:20
Distance/Time
To Go:
Arrived

Flight Plot

Page will automatically refresh every two minutes.

Flight plan parsing failed; only flown route is shown


Map Options




Map Legend


Flown Route
Filed Route
Departure Airport
Arrival Airport
Navaid (VOR, NDB)
Fix

Horizontal Profiles

Position Reports

Time Latitude Longitude Heading Altitude Ground
Speed
08-Nov-19 20:29 36.739941 -108.223206 89 5506ft 0kts
08-Nov-19 20:30 36.739941 -108.223206 89 5506ft 0kts
08-Nov-19 20:31 36.739941 -108.223206 89 5506ft 0kts
08-Nov-19 20:32 36.739941 -108.223206 89 5506ft 0kts
08-Nov-19 20:33 36.739941 -108.223206 89 5506ft 0kts
08-Nov-19 20:34 36.739941 -108.223206 89 5506ft 0kts
08-Nov-19 20:35 36.739941 -108.223206 89 5506ft 0kts
08-Nov-19 20:36 36.739941 -108.223206 89 5506ft 0kts
08-Nov-19 20:37 36.739941 -108.223206 89 5506ft 0kts
08-Nov-19 20:38 36.739941 -108.223206 89 5506ft 0kts
08-Nov-19 20:39 36.739941 -108.223206 89 5506ft 0kts
08-Nov-19 20:40 36.739941 -108.223206 89 5506ft 0kts
08-Nov-19 20:41 36.739941 -108.223206 89 5506ft 0kts
08-Nov-19 20:42 36.739941 -108.223206 89 5506ft 0kts
08-Nov-19 20:43 36.739941 -108.223206 89 5506ft 0kts
08-Nov-19 20:44 36.739941 -108.223206 89 5506ft 0kts
08-Nov-19 20:45 36.739941 -108.223206 89 5506ft 0kts
08-Nov-19 20:46 36.739941 -108.223206 89 5506ft 0kts
08-Nov-19 20:47 36.739941 -108.223206 89 5506ft 0kts
08-Nov-19 20:48 36.739941 -108.223206 89 5506ft 0kts
08-Nov-19 20:49 36.739941 -108.223206 89 5506ft 0kts
08-Nov-19 20:50 36.739941 -108.223206 89 5506ft 0kts
08-Nov-19 20:51 36.739941 -108.223205 89 5506ft 0kts
08-Nov-19 20:52 36.739941 -108.223205 89 5506ft 0kts
08-Nov-19 20:53 36.739941 -108.223205 89 5506ft 0kts
08-Nov-19 20:54 36.739941 -108.223205 89 5506ft 0kts
08-Nov-19 20:55 36.740605 -108.223483 32 5506ft 8kts
08-Nov-19 20:56 36.740777 -108.219773 87 5506ft 12kts
08-Nov-19 20:57 36.740823 -108.218464 81 5506ft 0kts
08-Nov-19 20:58 36.741434 -108.217178 340 5506ft 11kts
08-Nov-19 20:59 36.740213 -108.243781 244 6239ft 123kts
08-Nov-19 21:00 36.711564 -108.234570 136 8275ft 130kts
08-Nov-19 21:01 36.679739 -108.200065 137 10137ft 153kts
08-Nov-19 21:02 36.645363 -108.167499 174 12522ft 161kts
08-Nov-19 21:03 36.603098 -108.189787 205 14673ft 170kts
08-Nov-19 21:04 36.559924 -108.216064 205 16747ft 175kts
08-Nov-19 21:05 36.514962 -108.243421 205 18901ft 183kts
08-Nov-19 21:06 36.469794 -108.270885 205 21118ft 187kts
08-Nov-19 21:07 36.445556 -108.323521 264 23342ft 198kts
08-Nov-19 21:09 36.437386 -108.407381 264 23405ft 271kts
08-Nov-19 21:10 36.428546 -108.496978 264 25461ft 226kts
08-Nov-19 21:11 36.420744 -108.575714 264 27383ft 234kts
08-Nov-19 21:12 36.412726 -108.656062 263 28411ft 264kts
08-Nov-19 21:13 36.402780 -108.754839 263 28401ft 310kts
08-Nov-19 21:14 36.391596 -108.864833 263 28405ft 326kts
08-Nov-19 21:15 36.380018 -108.977860 263 28427ft 331kts
08-Nov-19 21:16 36.368181 -109.092326 262 28439ft 335kts
08-Nov-19 21:17 36.356018 -109.208846 262 28449ft 339kts
08-Nov-19 21:18 36.343628 -109.326121 262 28448ft 341kts
08-Nov-19 21:19 36.331056 -109.444197 262 28447ft 342kts
08-Nov-19 21:20 36.318408 -109.561804 262 28451ft 342kts
08-Nov-19 21:21 36.307227 -109.664950 261 28450ft 342kts
08-Nov-19 21:22 36.293387 -109.791363 261 28447ft 341kts
08-Nov-19 21:23 36.280377 -109.909096 261 28447ft 342kts
08-Nov-19 21:24 36.268093 -110.019246 261 28446ft 341kts
08-Nov-19 21:25 36.254913 -110.136424 261 28444ft 341kts
08-Nov-19 21:26 36.241582 -110.253924 261 28427ft 342kts
08-Nov-19 21:27 36.228016 -110.372429 261 28391ft 343kts
08-Nov-19 21:27 36.216696 -110.470425 261 28378ft 343kts
08-Nov-19 21:29 36.200660 -110.608174 261 28373ft 342kts
08-Nov-19 21:29 36.189280 -110.704936 261 28362ft 342kts
08-Nov-19 21:30 36.175483 -110.821525 261 28362ft 342kts
08-Nov-19 21:31 36.161466 -110.938800 261 28363ft 342kts
08-Nov-19 21:33 36.145598 -111.070555 261 28365ft 345kts
08-Nov-19 21:33 36.133542 -111.169800 261 28369ft 348kts
08-Nov-19 21:34 36.117493 -111.287432 255 28381ft 349kts
08-Nov-19 21:35 36.093298 -111.404216 254 28400ft 350kts
08-Nov-19 21:36 36.068818 -111.521171 254 28430ft 350kts
08-Nov-19 21:37 36.044178 -111.638208 254 28441ft 350kts
08-Nov-19 21:38 36.019567 -111.754539 254 28438ft 350kts
08-Nov-19 21:39 35.997397 -111.858800 254 28440ft 350kts
08-Nov-19 21:40 35.972582 -111.974950 254 28438ft 350kts
08-Nov-19 21:41 35.947537 -112.091650 254 28440ft 350kts
08-Nov-19 21:42 35.923237 -112.204196 254 28441ft 350kts
08-Nov-19 21:43 35.900084 -112.310976 254 28440ft 350kts
08-Nov-19 21:44 35.874989 -112.426097 254 28442ft 350kts
08-Nov-19 21:45 35.849430 -112.542822 254 28443ft 350kts
08-Nov-19 21:46 35.824212 -112.657383 253 28437ft 351kts
08-Nov-19 21:47 35.798336 -112.774341 253 28438ft 350kts
08-Nov-19 21:48 35.772574 -112.890282 253 28437ft 350kts
08-Nov-19 21:49 35.746810 -113.005607 252 28435ft 351kts
08-Nov-19 21:50 35.720716 -113.121717 252 28392ft 352kts
08-Nov-19 21:51 35.694416 -113.238288 252 28321ft 349kts
08-Nov-19 21:52 35.668373 -113.353104 252 27272ft 347kts
08-Nov-19 21:53 35.642174 -113.468040 252 25118ft 348kts
08-Nov-19 21:54 35.629264 -113.579515 281 24165ft 312kts
08-Nov-19 21:55 35.645097 -113.686768 280 22163ft 309kts
08-Nov-19 21:56 35.659589 -113.788565 280 21034ft 295kts
08-Nov-19 21:57 35.673803 -113.889108 279 19552ft 297kts
08-Nov-19 21:58 35.687728 -113.988236 279 18280ft 296kts
08-Nov-19 21:59 35.701491 -114.086845 280 16411ft 280kts
08-Nov-19 22:00 35.714389 -114.179779 280 14957ft 268kts
08-Nov-19 22:01 35.726834 -114.269973 279 13529ft 262kts
08-Nov-19 22:02 35.739048 -114.359005 279 12113ft 259kts
08-Nov-19 22:03 35.790076 -114.405490 341 12023ft 234kts
08-Nov-19 22:04 35.851525 -114.434480 341 12019ft 235kts
08-Nov-19 22:05 35.913280 -114.463392 341 12019ft 235kts
08-Nov-19 22:06 35.975782 -114.492692 341 11048ft 239kts
08-Nov-19 22:07 36.035420 -114.525430 307 9978ft 227kts
08-Nov-19 22:08 36.048072 -114.597555 281 9197ft 218kts
08-Nov-19 22:09 36.058337 -114.670109 281 7800ft 207kts
08-Nov-19 22:10 36.067575 -114.736947 281 6148ft 188kts
08-Nov-19 22:11 36.074719 -114.794568 275 5995ft 157kts
08-Nov-19 22:12 36.071997 -114.850186 268 5192ft 164kts
08-Nov-19 22:13 36.072686 -114.903881 270 4511ft 149kts
08-Nov-19 22:14 36.073058 -114.951128 271 4059ft 123kts
08-Nov-19 22:15 36.073174 -114.994184 270 3782ft 126kts
08-Nov-19 22:16 36.073123 -115.030951 272 3598ft 104kts
08-Nov-19 22:17 36.073394 -115.068165 270 3161ft 122kts
08-Nov-19 22:18 36.073540 -115.105284 270 2531ft 106kts
08-Nov-19 22:19 36.073587 -115.135535 270 2184ft 47kts
08-Nov-19 22:20 36.074419 -115.145232 298 2184ft 16kts
08-Nov-19 22:21 36.074756 -115.145952 301 2184ft 0kts
08-Nov-19 22:22 36.074760 -115.145959 301 2184ft 1kts
08-Nov-19 22:23 36.075718 -115.146728 348 2184ft 7kts
08-Nov-19 22:24 36.078538 -115.148426 285 2184ft 13kts

Navigation Log

Ident Type
Flight plan parsing failed, navigation log unavailable